createdAt,value
2022-08-21T00:00:44.542Z,7.40
2022-08-21T00:03:12.961Z,4.43
2022-08-21T00:05:42.557Z,2.75
2022-08-21T00:08:13.038Z,6.35
2022-08-21T00:10:41.509Z,2.33
2022-08-21T00:13:09.622Z,3.28
2022-08-21T00:15:41.053Z,3.58
2022-08-21T00:18:13.366Z,4.70
2022-08-21T00:20:45.734Z,2.95
2022-08-21T00:23:13.985Z,5.53
2022-08-21T00:25:42.931Z,2.47
2022-08-21T00:28:11.158Z,5.53
2022-08-21T00:30:40.936Z,2.70
2022-08-21T00:33:09.325Z,2.25
2022-08-21T00:35:38.282Z,4.20
2022-08-21T00:38:07.198Z,6.85
2022-08-21T00:40:36.115Z,2.60
2022-08-21T00:43:05.510Z,4.43
2022-08-21T00:45:33.424Z,4.13
2022-08-21T00:48:02.971Z,4.78
2022-08-21T00:50:33.026Z,6.00
2022-08-21T00:53:02.349Z,2.63
2022-08-21T00:55:30.783Z,5.05
2022-08-21T00:58:02.583Z,4.32
2022-08-21T01:00:32.850Z,2.95
2022-08-21T01:03:07.268Z,4.03
2022-08-21T01:05:37.225Z,3.83
2022-08-21T01:08:05.342Z,3.05
2022-08-21T01:10:33.362Z,4.30
2022-08-21T01:13:01.963Z,3.38
2022-08-21T01:15:32.665Z,4.22
2022-08-21T01:18:00.747Z,5.10
2022-08-21T01:20:32.438Z,4.25
2022-08-21T01:23:02.850Z,4.38
2022-08-21T01:25:31.081Z,3.08
2022-08-21T01:27:59.835Z,4.65
2022-08-21T01:30:29.027Z,3.90
2022-08-21T01:32:57.826Z,3.90
2022-08-21T01:35:26.006Z,3.88
2022-08-21T01:37:54.650Z,3.65
2022-08-21T01:40:24.052Z,6.75
2022-08-21T01:42:52.201Z,3.53
2022-08-21T01:45:20.192Z,4.50
2022-08-21T01:47:48.234Z,6.57
2022-08-21T01:50:17.507Z,3.67
2022-08-21T01:52:45.450Z,3.45
2022-08-21T01:55:14.082Z,5.25
2022-08-21T01:57:43.802Z,6.32
2022-08-21T02:00:13.793Z,4.40
2022-08-21T02:02:41.973Z,6.35
2022-08-21T02:05:10.838Z,6.25
2022-08-21T02:07:39.736Z,5.93
2022-08-21T02:10:08.923Z,4.97
2022-08-21T02:12:36.966Z,6.32
2022-08-21T02:15:06.930Z,4.45
2022-08-21T02:17:44.999Z,5.45
2022-08-21T02:22:40.974Z,11.45
2022-08-21T02:25:09.431Z,8.75
2022-08-21T02:27:40.092Z,6.72
2022-08-21T02:30:11.391Z,6.07
2022-08-21T02:32:39.475Z,8.18
2022-08-21T02:35:07.631Z,6.72
2022-08-21T02:37:35.938Z,6.10
2022-08-21T02:40:04.080Z,8.43
2022-08-21T02:42:32.022Z,5.32
2022-08-21T02:44:59.961Z,6.90
2022-08-21T02:47:29.389Z,6.22
2022-08-21T02:49:57.519Z,6.13
2022-08-21T02:52:27.539Z,7.00
2022-08-21T02:54:56.057Z,6.82
2022-08-21T02:57:24.163Z,5.70
2022-08-21T02:59:52.005Z,7.28
2022-08-21T03:02:19.837Z,9.35
2022-08-21T03:04:49.042Z,7.25
2022-08-21T03:07:17.209Z,6.10
2022-08-21T03:09:50.776Z,7.95
2022-08-21T03:12:24.122Z,5.88
2022-08-21T03:14:52.040Z,6.47
2022-08-21T03:17:19.940Z,5.50
2022-08-21T03:19:59.971Z,7.00
2022-08-21T03:22:27.926Z,5.72
2022-08-21T03:24:59.766Z,9.02
2022-08-21T03:27:28.252Z,6.78
2022-08-21T03:29:58.322Z,6.88
2022-08-21T03:32:26.423Z,7.35
2022-08-21T03:34:54.346Z,5.60
2022-08-21T03:37:23.880Z,7.32
2022-08-21T03:39:52.034Z,8.43
2022-08-21T03:42:19.977Z,6.82
2022-08-21T03:44:47.825Z,7.45
2022-08-21T03:47:15.679Z,8.32
2022-08-21T03:49:43.711Z,8.02
2022-08-21T03:52:11.578Z,5.70
2022-08-21T03:54:41.408Z,8.32
2022-08-21T03:57:09.860Z,7.43
2022-08-21T03:59:37.855Z,9.00
2022-08-21T04:02:06.929Z,7.95
2022-08-21T04:04:35.262Z,8.40
2022-08-21T04:07:03.382Z,8.50
2022-08-21T04:09:32.227Z,7.13
2022-08-21T04:12:02.353Z,9.82
2022-08-21T04:14:31.300Z,6.82
2022-08-21T04:16:59.654Z,7.10
2022-08-21T04:19:27.706Z,9.85
2022-08-21T04:21:55.572Z,8.68
2022-08-21T04:24:23.937Z,10.13
2022-08-21T04:26:54.481Z,7.57
2022-08-21T04:29:23.775Z,7.75
2022-08-21T04:31:53.398Z,8.50
2022-08-21T04:34:21.334Z,9.63
2022-08-21T04:36:49.329Z,10.05
2022-08-21T04:39:17.168Z,6.95
2022-08-21T04:41:45.547Z,7.78
2022-08-21T04:44:13.361Z,8.02
2022-08-21T04:46:42.690Z,9.02
2022-08-21T04:49:10.786Z,9.70
2022-08-21T04:51:39.696Z,6.60
2022-08-21T04:54:09.646Z,10.43
2022-08-21T04:56:41.378Z,6.25
2022-08-21T04:59:17.884Z,7.13
2022-08-21T05:01:48.104Z,7.97
2022-08-21T05:04:17.781Z,7.43
2022-08-21T05:06:46.613Z,8.38
2022-08-21T05:09:15.464Z,8.07
2022-08-21T05:11:44.075Z,6.43
2022-08-21T05:14:12.600Z,6.80
2022-08-21T05:16:41.634Z,8.10
2022-08-21T05:19:11.620Z,8.63
2022-08-21T05:21:41.763Z,7.88
2022-08-21T05:24:09.760Z,6.22
2022-08-21T05:26:46.098Z,5.72
2022-08-21T05:29:15.164Z,8.48
2022-08-21T05:31:44.495Z,5.35
2022-08-21T05:34:16.278Z,7.63
2022-08-21T05:36:45.128Z,7.47
2022-08-21T05:39:13.023Z,5.93
2022-08-21T05:41:41.329Z,5.40
2022-08-21T05:44:10.039Z,5.80
2022-08-21T05:46:38.844Z,7.65
2022-08-21T05:49:06.773Z,5.55
2022-08-21T05:51:36.377Z,7.43
2022-08-21T05:54:04.297Z,4.70
2022-08-21T05:56:32.652Z,7.80
2022-08-21T05:59:00.649Z,8.50
2022-08-21T06:01:28.800Z,7.07
2022-08-21T06:03:59.777Z,5.45
2022-08-21T06:06:29.766Z,5.43
2022-08-21T06:08:58.935Z,5.22
2022-08-21T06:11:28.995Z,7.72
2022-08-21T06:13:57.058Z,6.43
2022-08-21T06:16:24.955Z,5.65
2022-08-21T06:18:53.168Z,5.25
2022-08-21T06:21:21.106Z,5.53
2022-08-21T06:23:49.022Z,6.03
2022-08-21T06:26:18.382Z,5.45
2022-08-21T06:28:46.253Z,6.80
2022-08-21T06:31:15.770Z,9.27
2022-08-21T06:33:43.670Z,10.13
2022-08-21T06:36:11.594Z,6.05
2022-08-21T06:38:39.858Z,8.30
2022-08-21T06:41:10.142Z,7.32
2022-08-21T06:43:40.175Z,5.70
2022-08-21T06:46:09.070Z,4.50
2022-08-21T06:48:36.996Z,7.72
2022-08-21T06:51:05.326Z,8.02
2022-08-21T06:53:33.622Z,5.70
2022-08-21T06:56:01.545Z,8.27
2022-08-21T06:58:30.044Z,6.40
2022-08-21T07:01:01.294Z,4.95
2022-08-21T07:03:30.896Z,8.35
2022-08-21T07:05:59.360Z,7.15
2022-08-21T07:08:28.064Z,4.90
2022-08-21T07:10:57.014Z,8.43
2022-08-21T07:13:25.166Z,7.50
2022-08-21T07:15:53.162Z,5.68
2022-08-21T07:18:22.568Z,6.85
2022-08-21T07:20:50.624Z,4.45
2022-08-21T07:23:23.802Z,6.13
2022-08-21T07:25:51.958Z,8.18
2022-08-21T07:28:19.844Z,4.95
2022-08-21T07:30:48.003Z,7.03
2022-08-21T07:33:15.973Z,4.70
2022-08-21T07:35:45.190Z,5.82
2022-08-21T07:38:13.813Z,5.90
2022-08-21T07:40:42.223Z,5.03
2022-08-21T07:43:10.357Z,8.50
2022-08-21T07:45:38.244Z,5.22
2022-08-21T07:48:06.597Z,5.70
2022-08-21T07:50:34.612Z,5.10
2022-08-21T07:53:03.940Z,5.72
2022-08-21T07:55:31.935Z,4.07
2022-08-21T07:58:01.565Z,8.82
2022-08-21T08:00:30.335Z,8.15
2022-08-21T08:02:58.688Z,4.63
2022-08-21T08:05:28.377Z,6.25
2022-08-21T08:07:56.579Z,6.05
2022-08-21T08:10:25.959Z,5.18
2022-08-21T08:12:56.303Z,6.13
2022-08-21T08:15:24.936Z,5.32
2022-08-21T08:17:52.876Z,4.75
2022-08-21T08:20:21.258Z,6.22
2022-08-21T08:22:50.178Z,5.10
2022-08-21T08:25:19.321Z,6.40
2022-08-21T08:27:48.710Z,6.78
2022-08-21T08:30:17.595Z,4.63
2022-08-21T08:32:45.610Z,4.97
2022-08-21T08:35:14.067Z,9.02
2022-08-21T08:37:42.374Z,4.38
2022-08-21T08:40:13.473Z,5.68
2022-08-21T08:42:42.121Z,14.13
2022-08-21T08:45:12.710Z,19.23
2022-08-21T08:47:42.143Z,49.47
2022-08-21T08:50:13.146Z,15.07
2022-08-21T08:52:43.912Z,18.70
2022-08-21T08:55:15.285Z,29.67
2022-08-21T08:57:47.324Z,16.27
2022-08-21T09:00:20.829Z,5.70
2022-08-21T09:02:49.493Z,9.68
2022-08-21T09:05:23.238Z,7.43
2022-08-21T09:07:56.256Z,6.40
2022-08-21T09:10:27.363Z,7.72
2022-08-21T09:12:59.423Z,9.35
2022-08-21T09:15:32.290Z,5.65
2022-08-21T09:18:17.685Z,4.93
2022-08-21T09:20:49.520Z,6.72
2022-08-21T09:23:24.662Z,10.02
2022-08-21T09:25:56.607Z,5.25
2022-08-21T09:28:24.499Z,6.90
2022-08-21T09:30:56.592Z,7.35
2022-08-21T09:33:24.557Z,8.50
2022-08-21T09:35:54.040Z,7.32
2022-08-21T09:38:29.365Z,4.93
2022-08-21T09:40:59.336Z,8.20
2022-08-21T09:43:27.269Z,5.53
2022-08-21T09:46:11.002Z,7.43
2022-08-21T09:48:43.793Z,11.98
2022-08-21T09:51:12.910Z,6.57
2022-08-21T09:53:43.474Z,5.47
2022-08-21T09:56:36.476Z,8.70
2022-08-21T09:59:15.795Z,8.77
2022-08-21T10:01:47.277Z,6.15
2022-08-21T10:04:15.842Z,6.85
2022-08-21T10:06:43.841Z,5.55
2022-08-21T10:09:19.897Z,9.40
2022-08-21T10:11:52.982Z,5.75
2022-08-21T10:14:35.821Z,6.95
2022-08-21T10:17:16.275Z,6.15
2022-08-21T10:19:46.036Z,6.13
2022-08-21T10:22:22.799Z,8.43
2022-08-21T10:24:54.709Z,9.70
2022-08-21T10:27:29.366Z,8.25
2022-08-21T10:29:59.199Z,8.10
2022-08-21T10:32:35.527Z,8.82
2022-08-21T10:35:07.722Z,9.63
2022-08-21T10:37:54.403Z,6.70
2022-08-21T10:40:27.331Z,6.30
2022-08-21T10:43:03.222Z,9.00
2022-08-21T10:45:45.884Z,4.78
2022-08-21T10:48:18.294Z,5.90
2022-08-21T10:50:49.904Z,7.30
2022-08-21T10:53:32.632Z,7.25
2022-08-21T10:56:04.448Z,7.82
2022-08-21T10:58:33.791Z,7.30
2022-08-21T11:01:06.745Z,6.15
2022-08-21T11:03:40.283Z,8.43
2022-08-21T11:06:11.416Z,6.85
2022-08-21T11:08:43.519Z,7.18
2022-08-21T11:11:15.775Z,7.10
2022-08-21T11:13:49.527Z,5.63
2022-08-21T11:16:21.329Z,7.22
2022-08-21T11:18:53.167Z,7.10
2022-08-21T11:21:29.435Z,7.68
2022-08-21T11:24:04.604Z,7.28
2022-08-21T11:26:36.955Z,10.40
2022-08-21T11:29:11.649Z,7.13
2022-08-21T11:31:42.931Z,8.98
2022-08-21T11:34:17.173Z,10.20
2022-08-21T11:36:48.064Z,14.18
2022-08-21T11:39:19.708Z,13.45
2022-08-21T11:41:51.523Z,7.97
2022-08-21T11:44:20.690Z,7.40
2022-08-21T11:46:54.313Z,6.85
2022-08-21T11:49:32.291Z,14.70
2022-08-21T11:52:05.260Z,7.18
2022-08-21T11:54:36.878Z,13.73
2022-08-21T11:57:07.642Z,7.47
2022-08-21T11:59:40.833Z,7.05
2022-08-21T12:02:12.798Z,7.65
2022-08-21T12:04:47.398Z,4.95
2022-08-21T12:07:16.974Z,10.52
2022-08-21T12:09:54.954Z,5.57
2022-08-21T12:12:27.588Z,6.40
2022-08-21T12:15:06.906Z,8.38
2022-08-21T12:17:38.839Z,6.15
2022-08-21T12:20:19.870Z,8.77
2022-08-21T12:22:52.417Z,4.25
2022-08-21T12:25:22.156Z,7.57
2022-08-21T12:27:51.758Z,7.10
2022-08-21T12:30:27.328Z,6.38
2022-08-21T12:32:59.852Z,5.70
2022-08-21T12:35:33.356Z,5.32
2022-08-21T12:38:04.162Z,5.93
2022-08-21T12:40:33.424Z,7.75
2022-08-21T12:43:03.069Z,7.55
2022-08-21T12:45:33.211Z,5.60
2022-08-21T12:48:02.502Z,7.93
2022-08-21T12:50:37.818Z,8.52
2022-08-21T12:53:20.695Z,7.90
2022-08-21T12:55:49.294Z,15.23
2022-08-21T12:58:20.921Z,13.98
2022-08-21T13:00:53.287Z,8.30
2022-08-21T13:03:23.126Z,12.30
2022-08-21T13:05:55.955Z,11.80
2022-08-21T13:08:25.393Z,10.40
2022-08-21T13:10:58.678Z,12.90
2022-08-21T13:13:28.849Z,12.10
2022-08-21T13:15:59.954Z,12.25
2022-08-21T13:18:29.187Z,9.80
2022-08-21T13:21:07.625Z,8.07
2022-08-21T13:23:35.549Z,7.65
2022-08-21T13:26:04.449Z,10.48
2022-08-21T13:28:41.354Z,9.40
2022-08-21T13:31:11.514Z,13.43
2022-08-21T13:33:40.560Z,9.13
2022-08-21T13:36:12.631Z,10.43
2022-08-21T13:38:42.513Z,12.07
2022-08-21T13:41:13.120Z,11.95
2022-08-21T13:43:46.930Z,9.73
2022-08-21T13:46:16.357Z,12.30
2022-08-21T13:48:44.982Z,12.80
2022-08-21T13:51:14.440Z,10.10
2022-08-21T13:53:47.573Z,11.48
2022-08-21T13:56:23.842Z,7.38
2022-08-21T13:58:51.753Z,9.50
2022-08-21T14:01:21.814Z,8.55
2022-08-21T14:03:50.940Z,9.02
2022-08-21T14:06:21.702Z,12.25
2022-08-21T14:08:51.794Z,9.20
2022-08-21T14:11:19.828Z,10.40
2022-08-21T14:13:48.734Z,7.03
2022-08-21T14:16:19.109Z,8.68
2022-08-21T14:18:48.736Z,6.40
2022-08-21T14:21:27.448Z,6.40
2022-08-21T14:24:04.349Z,5.05
2022-08-21T14:26:32.518Z,4.40
2022-08-21T14:29:01.127Z,5.35
2022-08-21T14:31:31.505Z,4.05
2022-08-21T14:33:59.617Z,4.80
2022-08-21T14:36:27.481Z,3.67
2022-08-21T14:38:55.406Z,3.33
2022-08-21T14:41:26.673Z,2.90
2022-08-21T14:43:59.868Z,3.20
2022-08-21T14:46:35.814Z,6.60
2022-08-21T14:49:03.851Z,4.05
2022-08-21T14:51:31.792Z,3.20
2022-08-21T14:53:59.644Z,4.50
2022-08-21T14:56:28.878Z,2.95
2022-08-21T14:58:58.474Z,2.38
2022-08-21T15:01:26.352Z,3.67
2022-08-21T15:03:54.235Z,4.43
2022-08-21T15:06:22.856Z,5.80
2022-08-21T15:08:50.829Z,4.38
2022-08-21T15:11:42.076Z,5.70
2022-08-21T15:14:12.934Z,5.50
2022-08-21T15:16:40.865Z,2.83
2022-08-21T15:19:09.469Z,5.75
2022-08-21T15:21:37.363Z,5.63
2022-08-21T15:24:05.469Z,3.28
2022-08-21T15:26:33.364Z,4.80
2022-08-21T15:29:01.689Z,28.98
2022-08-21T15:31:31.033Z,24.40
2022-08-21T15:33:59.118Z,23.02
2022-08-21T15:36:26.979Z,8.95
2022-08-21T15:38:55.017Z,10.55
2022-08-21T15:41:22.962Z,5.55
2022-08-21T15:43:52.438Z,8.45
2022-08-21T15:46:21.598Z,5.07
2022-08-21T15:48:50.985Z,3.47
2022-08-21T15:51:19.315Z,7.68
2022-08-21T15:53:47.613Z,3.15
2022-08-21T15:56:19.964Z,3.97
2022-08-21T15:58:48.110Z,3.33
2022-08-21T16:01:16.123Z,2.60
2022-08-21T16:03:45.599Z,2.58
2022-08-21T16:06:15.112Z,3.45
2022-08-21T16:08:43.211Z,1.67
2022-08-21T16:11:12.263Z,4.78
2022-08-21T16:13:43.662Z,3.30
2022-08-21T16:16:13.106Z,2.70
2022-08-21T16:18:41.762Z,4.03
2022-08-21T16:21:09.770Z,2.45
2022-08-21T16:23:40.452Z,4.93
2022-08-21T16:26:09.193Z,4.22
2022-08-21T16:28:43.207Z,2.85
2022-08-21T16:31:11.136Z,3.75
2022-08-21T16:33:44.532Z,2.30
2022-08-21T16:36:12.666Z,3.42
2022-08-21T16:38:43.643Z,3.10
2022-08-21T16:41:13.488Z,5.55
2022-08-21T16:43:41.998Z,3.80
2022-08-21T16:46:10.972Z,3.45
2022-08-21T16:48:38.984Z,2.50
2022-08-21T16:51:07.320Z,3.30
2022-08-21T16:53:35.221Z,3.75
2022-08-21T16:56:05.350Z,2.58
2022-08-21T16:58:34.515Z,4.22
2022-08-21T17:01:05.449Z,4.15
2022-08-21T17:03:35.680Z,5.90
2022-08-21T17:06:04.155Z,3.25
2022-08-21T17:08:32.107Z,4.07
2022-08-21T17:11:00.607Z,3.60
2022-08-21T17:13:30.168Z,3.03
2022-08-21T17:15:58.196Z,3.60
2022-08-21T17:18:26.707Z,3.92
2022-08-21T17:20:54.715Z,5.25
2022-08-21T17:23:22.864Z,3.22
2022-08-21T17:25:52.167Z,3.25
2022-08-21T17:28:22.081Z,4.60
2022-08-21T17:30:52.575Z,4.45
2022-08-21T17:33:24.573Z,4.18
2022-08-21T17:35:52.874Z,1.95
2022-08-21T17:38:21.503Z,3.35
2022-08-21T17:40:49.610Z,1.95
2022-08-21T17:43:17.660Z,2.40
2022-08-21T17:45:46.197Z,3.63
2022-08-21T17:48:15.651Z,2.42
2022-08-21T17:50:43.808Z,4.15
2022-08-21T17:53:11.800Z,5.07
2022-08-21T17:55:41.647Z,2.22
2022-08-21T17:58:10.602Z,4.90
2022-08-21T18:00:38.989Z,4.03
2022-08-21T18:03:09.096Z,7.47
2022-08-21T18:05:39.165Z,6.55
2022-08-21T18:08:07.032Z,3.47
2022-08-21T18:10:35.002Z,4.78
2022-08-21T18:13:04.807Z,3.35
2022-08-21T18:15:32.758Z,3.60
2022-08-21T18:18:04.195Z,5.03
2022-08-21T18:20:32.098Z,6.55
2022-08-21T18:23:01.473Z,7.78
2022-08-21T18:25:29.946Z,3.17
2022-08-21T18:27:57.937Z,4.18
2022-08-21T18:30:26.366Z,3.85
2022-08-21T18:32:55.467Z,3.22
2022-08-21T18:35:23.827Z,3.50
2022-08-21T18:37:51.655Z,2.63
2022-08-21T18:40:21.513Z,4.78
2022-08-21T18:42:55.129Z,2.25
2022-08-21T18:45:23.294Z,5.93
2022-08-21T18:47:52.369Z,5.47
2022-08-21T18:50:21.616Z,4.75
2022-08-21T18:55:43.265Z,3.25
2022-08-21T18:58:11.326Z,3.92
2022-08-21T19:00:45.624Z,3.05
2022-08-21T19:03:15.442Z,2.38
2022-08-21T19:05:50.631Z,6.13
2022-08-21T19:08:20.558Z,3.50
2022-08-21T19:10:50.939Z,1.92
2022-08-21T19:13:20.677Z,3.25
2022-08-21T19:15:52.799Z,3.35
2022-08-21T19:18:28.037Z,4.18
2022-08-21T19:20:57.387Z,4.75
2022-08-21T19:23:29.484Z,3.95
2022-08-21T19:26:01.239Z,3.13
2022-08-21T19:28:30.195Z,2.15
2022-08-21T19:31:01.705Z,3.33
2022-08-21T19:33:31.979Z,5.20
2022-08-21T19:36:02.186Z,2.22
2022-08-21T19:38:29.973Z,4.85
2022-08-21T19:40:59.913Z,4.18
2022-08-21T19:43:29.270Z,2.45
2022-08-21T19:45:58.029Z,4.03
2022-08-21T19:48:26.431Z,1.88
2022-08-21T19:50:54.546Z,4.90
2022-08-21T19:53:22.552Z,1.90
2022-08-21T19:55:50.896Z,3.72
2022-08-21T19:58:25.377Z,4.65
2022-08-21T20:00:54.130Z,3.72
2022-08-21T20:03:22.097Z,3.95
2022-08-21T20:05:50.169Z,3.20
2022-08-21T20:11:06.621Z,2.97
2022-08-21T20:13:35.947Z,3.85
2022-08-21T20:16:06.374Z,2.22
2022-08-21T20:18:35.118Z,1.75
2022-08-21T20:21:03.217Z,2.10
2022-08-21T20:23:32.999Z,1.40
2022-08-21T20:26:02.526Z,1.98
2022-08-21T20:28:36.563Z,2.03
2022-08-21T20:33:57.159Z,1.98
2022-08-21T20:36:25.199Z,2.15
2022-08-21T20:38:53.103Z,1.85
2022-08-21T20:41:30.287Z,1.30
2022-08-21T20:46:29.271Z,1.98
2022-08-21T20:48:57.206Z,7.18
2022-08-21T20:51:27.194Z,2.50
2022-08-21T20:53:58.834Z,1.63
2022-08-21T20:56:34.032Z,2.70
2022-08-21T20:59:04.616Z,1.77
2022-08-21T21:01:34.392Z,1.70
2022-08-21T21:04:05.500Z,2.22
2022-08-21T21:06:38.449Z,2.08
2022-08-21T21:09:11.412Z,2.67
2022-08-21T21:11:43.290Z,2.55
2022-08-21T21:14:12.330Z,1.63
2022-08-21T21:16:50.545Z,2.78
2022-08-21T21:19:22.338Z,2.65
2022-08-21T21:21:52.182Z,4.80
2022-08-21T21:24:22.069Z,4.43
2022-08-21T21:26:57.608Z,2.15
2022-08-21T21:29:29.951Z,3.88
2022-08-21T21:31:59.711Z,2.72
2022-08-21T21:34:28.888Z,1.83
2022-08-21T21:39:49.969Z,1.35
2022-08-21T21:42:30.132Z,5.88
2022-08-21T21:45:12.157Z,2.88
2022-08-21T21:47:50.286Z,2.55
2022-08-21T21:50:35.292Z,2.35
2022-08-21T21:53:12.565Z,2.30
2022-08-21T21:56:07.984Z,3.72
2022-08-21T21:58:45.527Z,1.25
2022-08-21T22:01:17.449Z,1.52
2022-08-21T22:03:50.882Z,1.42
2022-08-21T22:06:25.063Z,3.95
2022-08-21T22:09:00.494Z,1.65
2022-08-21T22:11:32.494Z,2.17
2022-08-21T22:14:06.100Z,2.25
2022-08-21T22:16:37.204Z,2.45
2022-08-21T22:19:13.592Z,1.58
2022-08-21T22:21:45.439Z,1.73
2022-08-21T22:24:15.478Z,5.07
2022-08-21T22:26:44.991Z,2.78
2022-08-21T22:29:15.406Z,2.03
2022-08-21T22:31:43.897Z,10.52
2022-08-21T22:34:19.331Z,3.45
2022-08-21T22:36:51.704Z,3.35
2022-08-21T22:39:28.302Z,4.68
2022-08-21T22:42:06.581Z,2.78
2022-08-21T22:44:34.794Z,3.22
2022-08-21T22:47:03.652Z,2.65
2022-08-21T22:49:39.551Z,2.28
2022-08-21T22:52:13.119Z,5.40
2022-08-21T22:54:43.392Z,2.58
2022-08-21T22:57:14.949Z,2.20
2022-08-21T22:59:56.474Z,2.25
2022-08-21T23:02:36.501Z,4.97
2022-08-21T23:05:10.309Z,3.70
2022-08-21T23:07:43.076Z,3.28
2022-08-21T23:10:19.339Z,2.55
2022-08-21T23:12:49.197Z,3.15
2022-08-21T23:15:18.186Z,5.88
2022-08-21T23:17:50.293Z,5.35
2022-08-21T23:20:22.040Z,2.42
2022-08-21T23:22:56.210Z,2.17
2022-08-21T23:25:39.254Z,2.03
2022-08-21T23:28:10.371Z,2.83
2022-08-21T23:30:41.912Z,1.92
2022-08-21T23:33:18.827Z,5.35
2022-08-21T23:36:12.730Z,4.18
2022-08-21T23:38:51.374Z,2.13
2022-08-21T23:41:34.271Z,4.40
2022-08-21T23:44:10.755Z,5.28
2022-08-21T23:46:56.386Z,4.37
2022-08-21T23:49:29.718Z,4.03
2022-08-21T23:52:06.795Z,2.45
2022-08-21T23:54:40.495Z,1.83
2022-08-21T23:57:31.204Z,3.15
